createdAt,value
2022-08-22T00:01:39.698Z,17.60
2022-08-22T00:02:50.869Z,21.80
2022-08-22T00:02:54.637Z,18.00
2022-08-22T00:04:48.192Z,17.70
2022-08-22T00:07:49.603Z,17.70
2022-08-22T00:10:27.824Z,17.60
2022-08-22T00:13:12.075Z,17.60
2022-08-22T00:15:52.602Z,17.60
2022-08-22T00:18:34.936Z,17.60
2022-08-22T00:21:15.868Z,17.60
2022-08-22T00:24:05.955Z,17.60
2022-08-22T00:26:45.402Z,17.50
2022-08-22T00:29:48.909Z,17.50
2022-08-22T00:32:27.286Z,17.50
2022-08-22T00:35:32.356Z,17.40
2022-08-22T00:38:14.311Z,17.40
2022-08-22T00:41:04.811Z,17.40
2022-08-22T00:43:52.004Z,17.30
2022-08-22T00:46:35.388Z,17.30
2022-08-22T00:49:07.047Z,17.20
2022-08-22T00:52:17.562Z,17.20
2022-08-22T00:54:56.262Z,17.10
2022-08-22T00:57:48.876Z,17.10
2022-08-22T01:00:24.189Z,17.00
2022-08-22T01:03:27.506Z,17.00
2022-08-22T01:06:23.643Z,17.00
2022-08-22T01:09:23.202Z,17.00
2022-08-22T01:12:16.111Z,16.90
2022-08-22T01:14:57.026Z,16.90
2022-08-22T01:17:34.371Z,16.80
2022-08-22T01:20:37.192Z,16.80
2022-08-22T01:23:30.612Z,16.70
2022-08-22T01:26:37.562Z,16.70
2022-08-22T01:29:46.668Z,16.70
2022-08-22T01:32:33.287Z,16.60
2022-08-22T01:35:42.758Z,16.60
2022-08-22T01:38:37.225Z,16.50
2022-08-22T01:41:18.191Z,16.40
2022-08-22T01:44:07.046Z,16.40
2022-08-22T01:46:57.087Z,16.30
2022-08-22T01:49:34.720Z,16.30
2022-08-22T01:52:06.410Z,16.20
2022-08-22T01:54:56.025Z,16.20
2022-08-22T01:57:28.282Z,16.20
2022-08-22T02:00:07.795Z,16.20
2022-08-22T02:03:02.276Z,16.10
2022-08-22T02:05:46.681Z,16.10
2022-08-22T02:08:46.443Z,16.10
2022-08-22T02:11:42.316Z,16.10
2022-08-22T02:14:14.126Z,16.00
2022-08-22T02:16:52.502Z,15.90
2022-08-22T02:19:57.211Z,15.90
2022-08-22T02:22:51.803Z,15.80
2022-08-22T02:25:52.634Z,15.80
2022-08-22T02:28:57.111Z,15.80
2022-08-22T02:31:48.312Z,15.70
2022-08-22T02:34:28.891Z,15.70
2022-08-22T02:37:29.390Z,15.70
2022-08-22T02:40:06.411Z,15.70
2022-08-22T02:42:44.960Z,15.60
2022-08-22T02:45:48.670Z,15.60
2022-08-22T02:48:31.750Z,15.50
2022-08-22T02:51:19.083Z,15.50
2022-08-22T02:54:00.196Z,15.50
2022-08-22T02:56:41.107Z,15.50
2022-08-22T02:59:32.296Z,15.50
2022-08-22T03:02:33.435Z,15.50
2022-08-22T03:05:23.952Z,15.50
2022-08-22T03:08:09.385Z,15.40
2022-08-22T03:10:50.236Z,15.40
2022-08-22T03:13:57.317Z,15.30
2022-08-22T03:16:40.194Z,15.30
2022-08-22T03:19:40.620Z,15.20
2022-08-22T03:22:45.963Z,15.20
2022-08-22T03:25:20.518Z,15.10
2022-08-22T03:28:00.228Z,15.00
2022-08-22T03:30:55.389Z,15.00
2022-08-22T03:33:30.440Z,14.90
2022-08-22T03:36:23.992Z,14.80
2022-08-22T03:39:16.544Z,14.80
2022-08-22T03:42:09.123Z,14.80
2022-08-22T03:45:09.071Z,14.80
2022-08-22T03:48:05.600Z,14.80
2022-08-22T03:51:13.605Z,14.70
2022-08-22T03:54:06.929Z,14.60
2022-08-22T03:57:00.337Z,14.60
2022-08-22T03:59:53.953Z,14.60
2022-08-22T04:02:51.992Z,14.50
2022-08-22T04:05:23.684Z,14.50
2022-08-22T04:08:17.776Z,14.40
2022-08-22T04:11:02.462Z,14.50
2022-08-22T04:13:50.941Z,14.50
2022-08-22T04:17:01.069Z,14.40
2022-08-22T04:19:56.988Z,14.50
2022-08-22T04:22:40.072Z,14.50
2022-08-22T04:25:32.072Z,14.50
2022-08-22T04:28:25.508Z,14.40
2022-08-22T04:31:06.600Z,14.40
2022-08-22T04:33:52.554Z,14.30
2022-08-22T04:36:50.014Z,14.30
2022-08-22T04:39:40.324Z,14.30
2022-08-22T04:42:33.085Z,14.30
2022-08-22T04:45:21.809Z,14.20
2022-08-22T04:48:18.920Z,14.20
2022-08-22T04:51:42.834Z,14.20
2022-08-22T04:54:30.500Z,14.40
2022-08-22T04:57:32.186Z,14.40
2022-08-22T05:00:08.436Z,14.40
2022-08-22T05:02:44.642Z,14.40
2022-08-22T05:05:34.073Z,14.50
2022-08-22T05:08:11.624Z,14.60
2022-08-22T05:10:47.300Z,14.60
2022-08-22T05:13:48.711Z,14.60
2022-08-22T05:16:24.855Z,14.60
2022-08-22T05:19:05.413Z,14.80
2022-08-22T05:21:40.428Z,15.00
2022-08-22T05:24:22.062Z,15.20
2022-08-22T05:26:57.342Z,15.50
2022-08-22T05:29:32.404Z,15.80
2022-08-22T05:32:07.422Z,16.00
2022-08-22T05:34:41.927Z,16.20
2022-08-22T05:37:21.990Z,16.40
2022-08-22T05:39:59.088Z,16.50
2022-08-22T05:42:37.433Z,16.70
2022-08-22T05:45:12.384Z,17.10
2022-08-22T05:47:52.396Z,17.40
2022-08-22T05:50:37.137Z,17.50
2022-08-22T05:53:38.557Z,17.60
2022-08-22T05:56:32.067Z,17.80
2022-08-22T05:59:21.236Z,18.20
2022-08-22T06:02:21.627Z,18.30
2022-08-22T06:04:59.430Z,18.40
2022-08-22T06:07:39.992Z,18.50
2022-08-22T06:10:21.567Z,18.50
2022-08-22T06:13:05.853Z,16.90
2022-08-22T06:15:47.289Z,19.00
2022-08-22T06:18:24.099Z,19.30
2022-08-22T06:21:06.395Z,19.30
2022-08-22T06:23:52.120Z,19.20
2022-08-22T06:26:34.617Z,19.20
2022-08-22T06:29:08.765Z,19.40
2022-08-22T06:31:47.254Z,19.30
2022-08-22T06:34:31.060Z,19.30
2022-08-22T06:37:09.703Z,19.20
2022-08-22T06:39:45.037Z,19.10
2022-08-22T06:42:22.717Z,19.10
2022-08-22T06:45:06.547Z,19.10
2022-08-22T06:48:12.039Z,19.00
2022-08-22T06:50:48.933Z,19.00
2022-08-22T06:53:31.471Z,18.80
2022-08-22T06:56:07.283Z,18.70
2022-08-22T06:58:44.482Z,18.70
2022-08-22T07:01:20.648Z,18.60
2022-08-22T07:04:00.450Z,18.60
2022-08-22T07:06:36.918Z,18.60
2022-08-22T07:09:32.036Z,18.40
2022-08-22T07:12:31.345Z,18.40
2022-08-22T07:15:20.906Z,18.50
2022-08-22T07:17:59.504Z,18.50
2022-08-22T07:20:41.989Z,18.50
2022-08-22T07:23:31.697Z,18.70
2022-08-22T07:26:27.579Z,18.70
2022-08-22T07:29:11.364Z,18.80
2022-08-22T07:31:49.440Z,19.10
2022-08-22T07:34:55.872Z,19.50
2022-08-22T07:37:53.725Z,19.80
2022-08-22T07:40:48.291Z,20.10
2022-08-22T07:43:31.901Z,20.20
2022-08-22T07:46:12.803Z,20.50
2022-08-22T07:49:09.093Z,20.90
2022-08-22T07:51:46.363Z,21.10
2022-08-22T07:54:27.253Z,21.20
2022-08-22T07:57:04.578Z,21.30
2022-08-22T07:59:48.249Z,21.40
2022-08-22T08:02:21.706Z,21.30
2022-08-22T08:04:56.136Z,21.60
2022-08-22T08:07:29.307Z,21.50
2022-08-22T08:10:11.111Z,21.60
2022-08-22T08:12:54.150Z,21.70
2022-08-22T08:15:37.340Z,22.00
2022-08-22T08:18:19.097Z,22.10
2022-08-22T08:20:59.963Z,22.10
2022-08-22T08:23:39.580Z,22.10
2022-08-22T08:26:23.144Z,22.20
2022-08-22T08:28:58.152Z,22.10
2022-08-22T08:31:35.431Z,22.00
2022-08-22T08:34:23.459Z,22.00
2022-08-22T08:37:01.888Z,22.00
2022-08-22T08:39:38.073Z,22.10
2022-08-22T08:42:27.954Z,22.20
2022-08-22T08:45:28.975Z,22.40
2022-08-22T08:48:38.708Z,22.70
2022-08-22T08:51:29.845Z,22.80
2022-08-22T08:54:11.314Z,23.00
2022-08-22T08:56:59.448Z,23.30
2022-08-22T08:59:57.415Z,23.40
2022-08-22T09:03:09.221Z,23.20
2022-08-22T09:06:07.203Z,23.10
2022-08-22T09:09:10.858Z,23.20
2022-08-22T09:12:20.353Z,23.40
2022-08-22T09:15:18.662Z,23.60
2022-08-22T09:18:13.384Z,23.90
2022-08-22T09:21:03.273Z,23.80
2022-08-22T09:23:56.308Z,23.70
2022-08-22T09:26:29.258Z,23.80
2022-08-22T09:29:34.971Z,23.60
2022-08-22T09:32:53.027Z,23.50
2022-08-22T09:35:43.949Z,23.70
2022-08-22T09:38:48.050Z,23.80
2022-08-22T09:41:52.991Z,23.90
2022-08-22T09:44:39.792Z,24.40
2022-08-22T09:47:32.748Z,24.80
2022-08-22T09:50:13.786Z,25.20
2022-08-22T09:52:57.868Z,25.40
2022-08-22T09:56:15.091Z,25.40
2022-08-22T09:59:10.549Z,25.40
2022-08-22T10:01:55.035Z,25.20
2022-08-22T10:04:42.427Z,25.10
2022-08-22T10:07:52.683Z,25.20
2022-08-22T10:10:27.368Z,25.20
2022-08-22T10:13:04.871Z,25.10
2022-08-22T10:15:55.129Z,25.00
2022-08-22T10:18:33.660Z,25.00
2022-08-22T10:21:35.316Z,25.20
2022-08-22T10:24:10.086Z,25.40
2022-08-22T10:27:14.142Z,25.40
2022-08-22T10:30:03.857Z,25.40
2022-08-22T10:32:56.336Z,25.40
2022-08-22T10:35:33.968Z,25.30
2022-08-22T10:38:46.785Z,25.10
2022-08-22T10:41:53.072Z,25.00
2022-08-22T10:44:38.709Z,24.80
2022-08-22T10:47:19.041Z,24.80
2022-08-22T10:49:56.677Z,24.80
2022-08-22T10:52:47.750Z,24.80
2022-08-22T10:55:27.122Z,24.80
2022-08-22T10:58:14.380Z,25.00
2022-08-22T11:01:00.237Z,25.00
2022-08-22T11:03:50.923Z,25.10
2022-08-22T11:06:27.952Z,25.10
2022-08-22T11:09:25.990Z,25.10
2022-08-22T11:12:20.298Z,25.20
2022-08-22T11:15:27.262Z,25.20
2022-08-22T11:18:57.949Z,25.30
2022-08-22T11:21:54.428Z,25.30
2022-08-22T11:24:55.785Z,25.40
2022-08-22T11:28:15.731Z,25.40
2022-08-22T11:31:21.417Z,25.50
2022-08-22T11:33:59.053Z,25.60
2022-08-22T11:36:57.335Z,25.60
2022-08-22T11:39:45.160Z,25.90
2022-08-22T11:42:47.733Z,26.20
2022-08-22T11:45:27.632Z,26.40
2022-08-22T11:48:11.589Z,26.60
2022-08-22T11:50:50.292Z,26.60
2022-08-22T11:53:31.615Z,26.20
2022-08-22T11:56:12.231Z,25.90
2022-08-22T11:59:02.108Z,25.90
2022-08-22T12:01:52.591Z,25.70
2022-08-22T12:04:44.106Z,25.60
2022-08-22T12:07:26.565Z,25.70
2022-08-22T12:10:15.866Z,25.70
2022-08-22T12:12:56.118Z,25.80
2022-08-22T12:16:05.004Z,25.90
2022-08-22T12:18:45.288Z,26.10
2022-08-22T12:21:38.421Z,26.20
2022-08-22T12:24:19.423Z,26.20
2022-08-22T12:27:28.866Z,26.30
2022-08-22T12:30:35.728Z,26.30
2022-08-22T12:33:22.863Z,26.00
2022-08-22T12:36:17.758Z,26.00
2022-08-22T12:39:08.778Z,26.30
2022-08-22T12:41:46.619Z,26.70
2022-08-22T12:44:57.764Z,26.80
2022-08-22T12:47:55.437Z,26.60
2022-08-22T12:50:49.048Z,26.60
2022-08-22T12:53:29.608Z,26.70
2022-08-22T12:56:20.653Z,26.70
2022-08-22T12:59:18.728Z,26.70
2022-08-22T13:01:54.177Z,26.80
2022-08-22T13:04:33.606Z,26.80
2022-08-22T13:07:25.421Z,26.80
2022-08-22T13:10:14.071Z,26.70
2022-08-22T13:12:52.998Z,26.80
2022-08-22T13:15:32.195Z,26.90
2022-08-22T13:18:30.464Z,26.80
2022-08-22T13:21:06.358Z,26.80
2022-08-22T13:23:44.910Z,26.90
2022-08-22T13:26:33.742Z,26.70
2022-08-22T13:29:27.341Z,26.60
2022-08-22T13:32:37.643Z,26.80
2022-08-22T13:35:17.618Z,26.80
2022-08-22T13:38:04.687Z,27.10
2022-08-22T13:40:38.402Z,27.10
2022-08-22T13:43:20.524Z,27.10
2022-08-22T13:46:02.446Z,27.00
2022-08-22T13:48:50.194Z,26.60
2022-08-22T13:51:46.780Z,26.30
2022-08-22T13:54:59.694Z,27.40
2022-08-22T13:57:40.615Z,26.10
2022-08-22T14:00:35.715Z,26.00
2022-08-22T14:03:25.147Z,25.90
2022-08-22T14:06:07.268Z,25.80
2022-08-22T14:08:53.620Z,25.80
2022-08-22T14:11:40.067Z,25.80
2022-08-22T14:14:13.388Z,25.60
2022-08-22T14:16:50.941Z,25.60
2022-08-22T14:19:51.474Z,25.50
2022-08-22T14:22:32.288Z,25.40
2022-08-22T14:25:17.588Z,25.40
2022-08-22T14:28:09.216Z,25.40
2022-08-22T14:31:13.248Z,25.40
2022-08-22T14:33:51.730Z,25.30
2022-08-22T14:36:28.901Z,25.20
2022-08-22T14:39:10.026Z,25.20
2022-08-22T14:41:56.480Z,25.20
2022-08-22T14:44:47.543Z,25.10
2022-08-22T14:47:55.105Z,26.00
2022-08-22T14:50:54.315Z,24.90
2022-08-22T14:53:35.717Z,24.70
2022-08-22T14:56:22.059Z,24.60
2022-08-22T14:59:02.682Z,24.60
2022-08-22T15:01:58.330Z,24.60
2022-08-22T15:04:43.543Z,24.50
2022-08-22T15:07:34.975Z,24.40
2022-08-22T15:10:25.292Z,24.30
2022-08-22T15:13:01.649Z,24.20
2022-08-22T15:15:52.916Z,24.10
2022-08-22T15:18:28.677Z,24.10
2022-08-22T15:21:08.655Z,24.10
2022-08-22T15:23:45.183Z,25.80
2022-08-22T15:26:31.207Z,24.10
2022-08-22T15:29:17.518Z,24.10
2022-08-22T15:31:57.373Z,24.20
2022-08-22T15:34:35.678Z,24.30
2022-08-22T15:37:29.446Z,24.40
2022-08-22T15:40:29.221Z,24.50
2022-08-22T15:43:12.672Z,24.40
2022-08-22T15:45:44.588Z,24.40
2022-08-22T15:48:39.149Z,24.40
2022-08-22T15:51:30.688Z,24.30
2022-08-22T15:54:16.438Z,24.30
2022-08-22T15:57:35.127Z,24.30
2022-08-22T16:00:12.269Z,24.90
2022-08-22T16:03:03.685Z,24.30
2022-08-22T16:05:49.019Z,24.20
2022-08-22T16:08:44.715Z,24.30
2022-08-22T16:11:32.273Z,24.50
2022-08-22T16:14:42.742Z,24.60
2022-08-22T16:17:42.693Z,24.60
2022-08-22T16:20:19.895Z,24.50
2022-08-22T16:22:58.148Z,24.40
2022-08-22T16:25:44.968Z,24.30
2022-08-22T16:29:02.805Z,24.20
2022-08-22T16:31:59.904Z,24.20
2022-08-22T16:34:37.440Z,24.10
2022-08-22T16:37:13.607Z,24.00
2022-08-22T16:39:59.002Z,23.90
2022-08-22T16:42:43.278Z,23.80
2022-08-22T16:45:35.071Z,23.80
2022-08-22T16:48:32.209Z,23.70
2022-08-22T16:51:21.378Z,23.50
2022-08-22T16:54:12.702Z,23.40
2022-08-22T16:56:50.759Z,23.40
2022-08-22T16:59:53.560Z,23.40
2022-08-22T17:02:43.802Z,23.30
2022-08-22T17:05:48.431Z,23.30
2022-08-22T17:08:41.159Z,23.10
2022-08-22T17:11:32.289Z,23.00
2022-08-22T17:14:20.024Z,23.00
2022-08-22T17:17:14.651Z,23.00
2022-08-22T17:20:05.352Z,22.80
2022-08-22T17:22:54.367Z,22.80
2022-08-22T17:25:38.635Z,22.70
2022-08-22T17:28:33.534Z,22.70
2022-08-22T17:31:16.881Z,22.60
2022-08-22T17:34:21.466Z,22.60
2022-08-22T17:37:04.126Z,22.50
2022-08-22T17:39:53.003Z,22.40
2022-08-22T17:42:45.714Z,22.40
2022-08-22T17:45:32.250Z,22.30
2022-08-22T17:48:28.770Z,22.20
2022-08-22T17:51:33.411Z,22.20
2022-08-22T17:54:33.833Z,22.10
2022-08-22T17:57:26.011Z,22.00
2022-08-22T18:00:03.524Z,22.00
2022-08-22T18:02:54.899Z,21.90
2022-08-22T18:05:33.718Z,21.90
2022-08-22T18:08:37.698Z,21.90
2022-08-22T18:11:16.211Z,21.80
2022-08-22T18:14:09.890Z,21.80
2022-08-22T18:16:41.546Z,21.70
2022-08-22T18:19:51.120Z,22.60
2022-08-22T18:22:34.751Z,21.70
2022-08-22T18:25:17.360Z,21.60
2022-08-22T18:27:59.037Z,21.50
2022-08-22T18:30:47.788Z,21.40
2022-08-22T18:33:32.986Z,21.40
2022-08-22T18:36:19.621Z,21.30
2022-08-22T18:39:03.273Z,21.20
2022-08-22T18:41:57.692Z,21.10
2022-08-22T18:44:32.536Z,21.00
2022-08-22T18:47:18.755Z,21.00
2022-08-22T18:49:55.691Z,20.90
2022-08-22T18:52:27.358Z,20.90
2022-08-22T18:55:17.254Z,20.80
2022-08-22T18:58:02.039Z,20.80
2022-08-22T19:00:58.679Z,20.80
2022-08-22T19:03:49.078Z,20.70
2022-08-22T19:06:42.845Z,20.70
2022-08-22T19:09:39.356Z,20.60
2022-08-22T19:12:19.982Z,20.60
2022-08-22T19:15:13.080Z,20.60
2022-08-22T19:18:08.443Z,20.60
2022-08-22T19:20:59.332Z,20.50
2022-08-22T19:23:43.545Z,20.50
2022-08-22T19:26:32.196Z,20.40
2022-08-22T19:29:26.834Z,20.40
2022-08-22T19:32:12.968Z,20.30
2022-08-22T19:34:47.116Z,20.30
2022-08-22T19:37:32.573Z,20.20
2022-08-22T19:40:09.857Z,20.20
2022-08-22T19:42:44.097Z,20.20
2022-08-22T19:45:25.611Z,20.20
2022-08-22T19:48:15.861Z,20.20
2022-08-22T19:51:11.240Z,20.20
2022-08-22T19:54:00.839Z,20.20
2022-08-22T19:56:51.020Z,20.20
2022-08-22T19:59:22.858Z,20.10
2022-08-22T20:02:16.272Z,20.10
2022-08-22T20:04:59.958Z,20.00
2022-08-22T20:07:59.291Z,20.00
2022-08-22T20:10:54.482Z,19.90
2022-08-22T20:13:31.436Z,19.90
2022-08-22T20:16:29.455Z,19.90
2022-08-22T20:19:07.613Z,19.90
2022-08-22T20:21:53.343Z,18.80
2022-08-22T20:24:35.446Z,19.70
2022-08-22T20:27:38.174Z,19.70
2022-08-22T20:30:12.798Z,19.70
2022-08-22T20:32:51.049Z,19.70
2022-08-22T20:35:30.247Z,19.60
2022-08-22T20:38:13.003Z,19.60
2022-08-22T20:41:15.102Z,19.60
2022-08-22T20:44:01.506Z,19.50
2022-08-22T20:47:00.119Z,19.50
2022-08-22T20:49:47.992Z,19.50
2022-08-22T20:52:19.689Z,19.50
2022-08-22T20:55:28.613Z,19.50
2022-08-22T20:58:16.796Z,19.40
2022-08-22T21:00:52.684Z,19.40
2022-08-22T21:03:43.958Z,19.40
2022-08-22T21:06:28.306Z,19.30
2022-08-22T21:09:39.075Z,19.30
2022-08-22T21:12:11.012Z,19.30
2022-08-22T21:14:46.273Z,19.30
2022-08-22T21:17:33.565Z,19.20
2022-08-22T21:20:19.084Z,19.20
2022-08-22T21:22:51.405Z,19.20
2022-08-22T21:25:23.358Z,19.10
2022-08-22T21:27:55.240Z,19.10
2022-08-22T21:30:29.191Z,19.10
2022-08-22T21:33:00.987Z,19.00
2022-08-22T21:35:33.569Z,19.00
2022-08-22T21:38:05.944Z,19.00
2022-08-22T21:40:38.554Z,18.90
2022-08-22T21:43:12.004Z,18.80
2022-08-22T21:45:45.088Z,18.80
2022-08-22T21:48:34.943Z,18.70
2022-08-22T21:51:42.900Z,18.70
2022-08-22T21:54:29.304Z,18.70
2022-08-22T21:57:10.125Z,17.60
2022-08-22T21:59:52.058Z,18.60
2022-08-22T22:02:40.606Z,18.60
2022-08-22T22:05:16.167Z,18.60
2022-08-22T22:07:48.959Z,18.50
2022-08-22T22:10:23.174Z,18.40
2022-08-22T22:12:58.792Z,18.40
2022-08-22T22:15:34.550Z,18.40
2022-08-22T22:18:06.518Z,18.40
2022-08-22T22:20:38.755Z,18.40
2022-08-22T22:23:11.089Z,18.40
2022-08-22T22:25:44.294Z,18.40
2022-08-22T22:28:22.102Z,18.30
2022-08-22T22:30:54.011Z,18.20
2022-08-22T22:33:29.016Z,18.10
2022-08-22T22:36:15.872Z,18.10
2022-08-22T22:38:47.980Z,18.10
2022-08-22T22:41:25.217Z,18.10
2022-08-22T22:43:57.264Z,18.20
2022-08-22T22:46:29.306Z,18.10
2022-08-22T22:49:01.066Z,18.10
2022-08-22T22:51:32.951Z,18.00
2022-08-22T22:54:04.888Z,18.00
2022-08-22T22:56:36.692Z,18.00
2022-08-22T22:59:13.656Z,17.90
2022-08-22T23:02:09.008Z,17.90
2022-08-22T23:04:43.971Z,17.80
2022-08-22T23:07:16.196Z,17.70
2022-08-22T23:09:48.161Z,17.70
2022-08-22T23:12:21.041Z,17.70
2022-08-22T23:14:53.952Z,17.70
2022-08-22T23:17:26.113Z,17.70
2022-08-22T23:19:58.064Z,17.70
2022-08-22T23:22:30.733Z,17.70
2022-08-22T23:25:02.609Z,17.70
2022-08-22T23:27:34.564Z,17.70
2022-08-22T23:30:08.581Z,17.60
2022-08-22T23:32:40.370Z,17.60
2022-08-22T23:35:12.125Z,17.60
2022-08-22T23:37:43.855Z,17.60
2022-08-22T23:40:15.701Z,18.60
2022-08-22T23:42:47.499Z,17.50
2022-08-22T23:45:19.307Z,17.50
2022-08-22T23:47:51.047Z,17.50
2022-08-22T23:50:22.780Z,17.50
2022-08-22T23:52:54.515Z,17.50
2022-08-22T23:55:26.270Z,19.10
2022-08-22T23:57:58.168Z,17.40
